Time;durP1;ratioP1;P1;durP2;ratioP2;P2;SDS_P1;SDS_P2;PMS_P1;PMS_P2;Temp;Humidity;BMP_temperature;BMP_pressure;BME280_temperature;BME280_humidity;BME280_pressure;Samples;Min_cycle;Max_cycle;Signal;HPM_P1;HPM_P2
2022/07/02 00:01:55;;;;;;;3.95;1.67;;;;;;;12.32;100.00;99379.91;5028014;28;20383;-73
2022/07/02 00:04:23;;;;;;;4.22;1.90;;;;;;;12.32;100.00;99388.06;5028391;28;20061;-72
2022/07/02 00:06:48;;;;;;;3.17;1.90;;;;;;;12.29;100.00;99388.47;5027352;28;20390;-73
2022/07/02 00:09:14;;;;;;;3.28;2.00;;;;;;;12.01;100.00;99372.22;5027917;28;20087;-73
2022/07/02 00:11:41;;;;;;;3.83;2.05;;;;;;;12.09;100.00;99392.91;5029841;28;20029;-72
2022/07/02 00:14:08;;;;;;;3.22;2.13;;;;;;;11.98;100.00;99381.59;5027380;28;20022;-73
2022/07/02 00:16:34;;;;;;;5.03;1.90;;;;;;;12.07;100.00;99398.53;5019658;28;20029;-72
2022/07/02 00:19:00;;;;;;;6.18;2.00;;;;;;;12.05;100.00;99406.00;5020416;28;20378;-73
2022/07/02 00:21:26;;;;;;;4.05;2.15;;;;;;;12.06;100.00;99397.69;5025967;28;20030;-73
2022/07/02 00:23:51;;;;;;;6.00;1.85;;;;;;;11.90;100.00;99403.44;5027961;28;20026;-73
2022/07/02 00:26:27;;;;;;;2.17;1.60;;;;;;;11.91;100.00;99404.25;5023195;28;20036;-73
2022/07/02 00:29:35;;;;;;;3.95;1.75;;;;;;;11.83;100.00;99406.03;5024961;28;20022;-73
2022/07/02 00:32:00;;;;;;;3.20;2.05;;;;;;;11.86;100.00;99380.44;4962189;28;20375;-73
2022/07/02 00:34:26;;;;;;;2.97;2.13;;;;;;;12.04;100.00;99396.22;5018127;28;20036;-73
2022/07/02 00:36:51;;;;;;;8.73;2.50;;;;;;;11.96;100.00;99367.38;5028380;28;20041;-72
2022/07/02 00:39:17;;;;;;;4.88;1.98;;;;;;;11.96;100.00;99391.78;5029144;28;20021;-73
2022/07/02 00:41:43;;;;;;;4.70;1.80;;;;;;;11.82;100.00;99374.56;5031160;28;20057;-72
2022/07/02 00:44:09;;;;;;;7.90;2.33;;;;;;;11.88;100.00;99396.53;5028349;28;20021;-72
2022/07/02 00:46:36;;;;;;;4.30;2.10;;;;;;;11.79;100.00;99399.34;5026269;28;20029;-73
2022/07/02 00:49:01;;;;;;;5.65;2.35;;;;;;;11.79;100.00;99398.53;5023229;28;20040;-73
2022/07/02 00:51:27;;;;;;;5.10;1.95;;;;;;;11.68;100.00;99399.88;5027288;28;20030;-72
2022/07/02 00:53:53;;;;;;;2.60;2.05;;;;;;;11.53;100.00;99402.69;5025435;28;20045;-72
2022/07/02 00:56:18;;;;;;;3.88;1.73;;;;;;;11.28;100.00;99383.25;5026118;28;20037;-72
2022/07/02 00:58:44;;;;;;;3.70;2.63;;;;;;;11.39;100.00;99363.75;5028537;28;20108;-72
2022/07/02 01:01:09;;;;;;;2.83;2.10;;;;;;;11.55;100.00;99388.91;5030242;28;20029;-73
2022/07/02 01:03:35;;;;;;;4.95;2.20;;;;;;;11.56;100.00;99393.31;5032000;28;20021;-73
2022/07/02 01:06:00;;;;;;;5.57;2.30;;;;;;;11.31;100.00;99360.38;5030758;28;20041;-72
2022/07/02 01:11:13;;;;;;;6.45;2.08;;;;;;;11.39;100.00;99379.19;5032194;28;20047;-72
2022/07/02 01:13:38;;;;;;;6.38;2.13;;;;;;;11.31;100.00;99371.19;5032758;28;20097;-72
2022/07/02 01:16:04;;;;;;;2.40;1.92;;;;;;;11.27;100.00;99378.06;5032510;28;20097;-73
2022/07/02 01:18:29;;;;;;;2.63;1.83;;;;;;;11.21;100.00;99386.94;5028768;28;20112;-73
2022/07/02 01:20:54;;;;;;;9.23;2.22;;;;;;;11.01;100.00;99371.34;5032118;28;20112;-73
2022/07/02 01:23:20;;;;;;;3.10;2.15;;;;;;;11.12;100.00;99378.94;5034049;28;20026;-73
2022/07/02 01:25:50;;;;;;;9.68;2.50;;;;;;;11.10;100.00;99372.88;5030588;28;20044;-72
2022/07/02 01:28:15;;;;;;;3.67;2.20;;;;;;;11.09;100.00;99392.03;5024793;28;20025;-73
2022/07/02 01:30:41;;;;;;;8.05;2.38;;;;;;;11.23;100.00;99379.47;5028086;28;20036;-72
2022/07/02 01:33:06;;;;;;;2.35;1.85;;;;;;;11.22;100.00;99370.50;5031008;28;20029;-73
2022/07/02 01:38:53;;;;;;;6.20;2.58;;;;;;;11.29;100.00;99378.69;5025915;28;20044;-73
2022/07/02 01:44:02;;;;;;;4.97;2.13;;;;;;;11.25;100.00;99372.81;5022822;28;20407;-73
2022/07/02 01:46:27;;;;;;;3.88;2.13;;;;;;;11.23;100.00;99374.03;5024874;28;20033;-73
2022/07/02 01:48:52;;;;;;;5.43;2.05;;;;;;;11.21;100.00;99376.09;5028472;28;20031;-72
2022/07/02 01:51:17;;;;;;;2.75;2.20;;;;;;;11.06;100.00;99363.47;5021533;28;20052;-73
2022/07/02 01:53:43;;;;;;;3.67;1.95;;;;;;;11.04;100.00;99375.53;5027840;28;20041;-72
2022/07/02 01:56:08;;;;;;;3.45;1.80;;;;;;;10.99;100.00;99386.09;5028977;28;20037;-73
2022/07/02 01:58:33;;;;;;;3.72;1.73;;;;;;;10.92;100.00;99378.72;5028711;28;20061;-72
2022/07/02 02:00:58;;;;;;;3.80;1.85;;;;;;;10.77;100.00;99375.25;5026065;28;21770;-73
2022/07/02 02:03:25;;;;;;;2.33;1.80;;;;;;;10.71;100.00;99376.81;5027860;28;20049;-72
2022/07/02 02:05:52;;;;;;;4.00;1.70;;;;;;;10.69;100.00;99389.72;5028435;28;20037;-72
2022/07/02 02:08:17;;;;;;;4.70;2.10;;;;;;;10.61;100.00;99381.72;5030013;28;20025;-73
2022/07/02 02:10:42;;;;;;;3.28;2.00;;;;;;;10.75;100.00;99386.25;5028665;28;20498;-74
2022/07/02 02:13:07;;;;;;;3.05;1.90;;;;;;;10.86;100.00;99384.06;5023971;28;20037;-72
2022/07/02 02:15:33;;;;;;;6.43;2.03;;;;;;;10.82;100.00;99370.09;5027324;28;20032;-72
2022/07/02 02:17:58;;;;;;;3.83;2.08;;;;;;;10.84;100.00;99383.41;5029549;28;20029;-73
2022/07/02 02:20:23;;;;;;;6.20;2.20;;;;;;;10.80;100.00;99369.44;5041145;22;20038;-66
2022/07/02 02:22:48;;;;;;;3.45;2.53;;;;;;;10.84;100.00;99375.28;5016109;28;20032;-66
2022/07/02 02:25:14;;;;;;;10.25;2.80;;;;;;;10.90;100.00;99379.97;5027978;28;20467;-66
2022/07/02 02:27:39;;;;;;;5.97;2.33;;;;;;;10.72;100.00;99381.22;5025134;28;20021;-66
2022/07/02 02:30:05;;;;;;;5.18;2.13;;;;;;;10.60;100.00;99371.06;5021877;28;20033;-66
2022/07/02 02:32:30;;;;;;;3.78;2.30;;;;;;;10.71;100.00;99371.41;5008350;28;20388;-66
2022/07/02 02:34:56;;;;;;;10.57;2.47;;;;;;;10.81;100.00;99373.81;5001121;28;20078;-66
2022/07/02 02:37:21;;;;;;;2.53;1.90;;;;;;;10.73;100.00;99365.81;5004606;28;20025;-66
2022/07/02 02:39:46;;;;;;;2.67;1.85;;;;;;;10.59;100.00;99372.94;5007833;28;20022;-66
2022/07/02 02:42:11;;;;;;;4.22;2.20;;;;;;;10.55;100.00;99377.03;5013549;28;20050;-67
2022/07/02 02:44:37;;;;;;;2.83;1.90;;;;;;;10.52;100.00;99372.00;5008177;28;20104;-66
2022/07/02 02:47:02;;;;;;;4.68;2.10;;;;;;;10.69;100.00;99378.91;5007558;28;20022;-66
2022/07/02 02:49:27;;;;;;;3.20;1.95;;;;;;;10.65;100.00;99374.88;5003908;28;20479;-66
2022/07/02 02:51:53;;;;;;;4.03;1.85;;;;;;;10.62;100.00;99377.97;5011034;28;20052;-67
2022/07/02 02:54:18;;;;;;;5.00;1.60;;;;;;;10.41;100.00;99381.44;5005899;28;20416;-66
2022/07/02 02:56:43;;;;;;;6.20;1.88;;;;;;;10.35;100.00;99384.06;5010290;28;20490;-66
2022/07/02 02:59:08;;;;;;;5.20;1.90;;;;;;;10.34;100.00;99380.50;4993372;28;20040;-66
2022/07/02 03:01:34;;;;;;;5.55;1.80;;;;;;;10.21;100.00;99375.72;5005264;28;20034;-66
2022/07/02 03:03:59;;;;;;;4.93;2.03;;;;;;;10.25;100.00;99379.75;5004839;28;20025;-66
2022/07/02 03:06:24;;;;;;;6.65;2.00;;;;;;;10.41;100.00;99380.63;5008643;28;20022;-66
2022/07/02 03:08:50;;;;;;;8.50;2.10;;;;;;;10.49;100.00;99373.22;5011608;28;20417;-66
2022/07/02 03:11:15;;;;;;;2.88;1.65;;;;;;;10.41;100.00;99373.34;5010636;28;20030;-66
2022/07/02 03:13:40;;;;;;;5.07;1.92;;;;;;;10.31;100.00;99368.22;5011397;28;20095;-66
2022/07/02 03:16:07;;;;;;;5.63;1.95;;;;;;;10.47;100.00;99377.16;5014268;28;20029;-66
2022/07/02 03:18:32;;;;;;;6.00;1.92;;;;;;;10.36;100.00;99374.94;4995928;28;20533;-66
2022/07/02 03:20:57;;;;;;;4.38;1.85;;;;;;;10.33;100.00;99389.66;5004328;28;20037;-66
2022/07/02 03:23:22;;;;;;;5.28;2.47;;;;;;;10.23;100.00;99362.88;5009312;28;20025;-66
2022/07/02 03:25:48;;;;;;;6.63;2.30;;;;;;;10.33;100.00;99383.44;4999664;28;20056;-67
2022/07/02 03:28:13;;;;;;;7.63;2.55;;;;;;;10.38;100.00;99392.66;5003949;28;20025;-67
2022/07/02 03:30:38;;;;;;;6.47;3.00;;;;;;;10.29;100.00;99397.28;5006575;28;20042;-67
2022/07/02 03:33:04;;;;;;;3.90;2.38;;;;;;;10.11;100.00;99380.56;5006666;28;20067;-67
2022/07/02 03:35:29;;;;;;;5.00;3.03;;;;;;;10.21;100.00;99385.72;5008460;28;20033;-66
2022/07/02 03:37:54;;;;;;;8.68;3.22;;;;;;;10.47;100.00;99401.50;5012378;28;20067;-66
2022/07/02 03:40:20;;;;;;;7.10;2.67;;;;;;;10.49;100.00;99404.84;5016384;28;20076;-66
2022/07/02 03:42:45;;;;;;;4.15;2.72;;;;;;;10.36;100.00;99393.88;5010504;28;20022;-66
2022/07/02 03:45:10;;;;;;;4.70;2.50;;;;;;;10.44;100.00;99412.69;5013416;28;20117;-66
2022/07/02 03:47:36;;;;;;;3.38;2.72;;;;;;;10.50;100.00;99420.06;5006872;28;20109;-66
2022/07/02 03:50:01;;;;;;;5.22;2.25;;;;;;;10.36;100.00;99400.09;5009651;28;20411;-66
2022/07/02 03:52:27;;;;;;;4.03;2.15;;;;;;;10.49;100.00;99410.25;5007423;28;20022;-66
2022/07/02 03:54:52;;;;;;;4.82;2.03;;;;;;;10.44;100.00;99404.59;5011556;28;20079;-66
2022/07/02 03:57:17;;;;;;;5.20;2.15;;;;;;;10.43;100.00;99405.63;5001640;28;20415;-66
2022/07/02 03:59:43;;;;;;;4.65;2.40;;;;;;;10.40;100.00;99412.25;5002561;28;20026;-66
2022/07/02 04:02:08;;;;;;;4.70;2.50;;;;;;;10.50;100.00;99409.22;5005840;28;20045;-66
2022/07/02 04:04:33;;;;;;;4.22;2.40;;;;;;;10.63;100.00;99411.28;4986512;28;20064;-67
2022/07/02 04:06:59;;;;;;;4.15;1.90;;;;;;;10.70;100.00;99404.09;5003593;28;20144;-67
2022/07/02 04:09:24;;;;;;;4.78;1.80;;;;;;;10.73;100.00;99406.41;5002908;28;20033;-67
2022/07/02 04:11:49;;;;;;;3.25;1.90;;;;;;;10.80;100.00;99404.63;5004291;28;20025;-68
2022/07/02 04:14:14;;;;;;;4.85;1.98;;;;;;;10.89;100.00;99417.00;5009249;28;20434;-68
2022/07/02 04:16:40;;;;;;;7.70;2.00;;;;;;;10.72;100.00;99380.38;5008721;28;20057;-72
2022/07/02 04:19:05;;;;;;;6.47;1.88;;;;;;;11.07;100.00;99405.75;4986308;28;20037;-66
2022/07/02 04:21:30;;;;;;;4.15;2.05;;;;;;;11.09;100.00;99408.28;5008512;28;20497;-68
2022/07/02 04:23:56;;;;;;;4.43;1.85;;;;;;;11.12;100.00;99414.16;4991679;28;20038;-69
2022/07/02 04:26:21;;;;;;;8.88;2.28;;;;;;;11.23;100.00;99407.38;5003597;28;20026;-69
2022/07/02 04:28:46;;;;;;;6.07;1.90;;;;;;;11.31;100.00;99404.53;5006303;28;20022;-68
2022/07/02 04:31:11;;;;;;;6.97;1.90;;;;;;;11.51;100.00;99414.75;5006639;28;20037;-68
2022/07/02 04:33:37;;;;;;;4.10;1.60;;;;;;;11.58;100.00;99405.66;5013958;28;20071;-68
2022/07/02 04:36:02;;;;;;;3.22;1.73;;;;;;;11.78;100.00;99408.50;5012650;28;20034;-69
2022/07/02 04:38:28;;;;;;;6.40;1.60;;;;;;;11.85;100.00;99412.13;4993858;28;20380;-67
2022/07/02 04:40:53;;;;;;;3.55;1.63;;;;;;;11.89;100.00;99411.75;5011402;28;20041;-70
2022/07/02 04:43:18;;;;;;;4.65;1.83;;;;;;;11.98;100.00;99402.44;5006678;28;20029;-67
2022/07/02 04:45:43;;;;;;;2.63;1.60;;;;;;;12.02;100.00;99407.25;5012990;28;20479;-70
2022/07/02 04:48:09;;;;;;;6.18;1.70;;;;;;;12.12;100.00;99414.22;5003675;28;20054;-70
2022/07/02 04:50:34;;;;;;;3.90;1.67;;;;;;;12.21;100.00;99405.72;5008828;28;20030;-69
2022/07/02 04:52:59;;;;;;;3.13;1.38;;;;;;;12.38;100.00;99414.38;5008196;28;20054;-69
2022/07/02 04:55:25;;;;;;;4.25;1.75;;;;;;;12.46;100.00;99408.78;5025427;28;20082;-70
2022/07/02 04:57:50;;;;;;;4.57;1.95;;;;;;;12.66;100.00;99411.59;5005530;28;20037;-69
2022/07/02 05:00:15;;;;;;;5.93;1.70;;;;;;;12.80;100.00;99412.50;5003565;28;20447;-70
2022/07/02 05:02:41;;;;;;;3.65;1.45;;;;;;;12.74;100.00;99385.31;4994115;28;20124;-69
2022/07/02 05:05:06;;;;;;;7.45;1.60;;;;;;;12.74;100.00;99364.44;5013222;28;20376;-72
2022/07/02 05:07:32;;;;;;;2.47;1.65;;;;;;;13.00;100.00;99403.59;5007415;28;20118;-76
2022/07/02 05:09:58;;;;;;;5.10;1.77;;;;;;;13.20;100.00;99420.75;5012369;28;20076;-73
2022/07/02 05:12:24;;;;;;;4.60;1.42;;;;;;;13.19;100.00;99408.22;4993874;28;20022;-75
2022/07/02 05:14:50;;;;;;;2.55;1.80;;;;;;;13.36;100.00;99414.13;5003930;28;20034;-75
2022/07/02 05:17:15;;;;;;;5.97;2.47;;;;;;;13.47;100.00;99407.28;5008431;28;20168;-72
2022/07/02 05:19:41;;;;;;;9.20;1.70;;;;;;;13.54;100.00;99418.97;5009362;28;20459;-72
2022/07/02 05:22:06;;;;;;;4.68;2.05;;;;;;;13.53;100.00;99401.00;5014091;28;20033;-71
2022/07/02 05:24:31;;;;;;;8.45;2.20;;;;;;;13.61;100.00;99413.56;5011982;28;20032;-69
2022/07/02 05:26:57;;;;;;;4.78;1.77;;;;;;;13.77;100.00;99424.84;5011980;28;20034;-68
2022/07/02 05:29:22;;;;;;;7.50;2.17;;;;;;;13.86;100.00;99411.91;5010069;28;20076;-68
2022/07/02 05:31:47;;;;;;;6.38;2.00;;;;;;;14.05;100.00;99431.97;5012458;28;20071;-69
2022/07/02 05:34:13;;;;;;;6.18;2.00;;;;;;;14.20;100.00;99432.59;4994610;28;20120;-72
2022/07/02 05:36:38;;;;;;;11.05;2.00;;;;;;;14.35;100.00;99434.22;5012659;28;20546;-69
2022/07/02 05:39:03;;;;;;;4.57;1.83;;;;;;;14.34;100.00;99433.38;4991134;28;20026;-69
2022/07/02 05:41:28;;;;;;;2.88;1.50;;;;;;;14.54;100.00;99432.53;5000320;28;20057;-71
2022/07/02 05:43:54;;;;;;;4.45;1.50;;;;;;;14.63;100.00;99417.66;5003895;28;20029;-74
2022/07/02 05:46:19;;;;;;;6.45;2.28;;;;;;;14.73;100.00;99411.75;4994623;28;20034;-75
2022/07/02 05:48:44;;;;;;;7.10;1.30;;;;;;;14.95;100.00;99409.56;5013411;28;20108;-76
2022/07/02 05:51:10;;;;;;;4.30;1.55;;;;;;;15.34;100.00;99430.31;5013269;28;20034;-76
2022/07/02 05:53:35;;;;;;;3.50;1.58;;;;;;;15.13;100.00;99380.50;5010149;28;20025;-75
2022/07/02 05:56:00;;;;;;;7.75;1.45;;;;;;;15.42;100.00;99413.69;4991364;28;20026;-76
2022/07/02 05:58:26;;;;;;;5.45;1.63;;;;;;;15.74;100.00;99397.31;4989485;28;20030;-75
2022/07/02 06:00:51;;;;;;;6.25;1.65;;;;;;;16.25;100.00;99428.16;4987044;28;20044;-75
2022/07/02 06:03:16;;;;;;;5.22;1.10;;;;;;;16.48;100.00;99427.50;4993252;28;20029;-76
2022/07/02 06:08:25;;;;;;;7.00;1.15;;;;;;;16.94;100.00;99426.16;5010634;28;20087;-76
2022/07/02 06:10:52;;;;;;;2.35;0.98;;;;;;;17.07;100.00;99420.53;5006367;28;20034;-76
2022/07/02 06:13:17;;;;;;;3.30;1.23;;;;;;;17.17;100.00;99403.56;4993173;28;20040;-76
2022/07/02 06:15:43;;;;;;;2.20;1.00;;;;;;;17.34;100.00;99431.09;5009987;28;20026;-76
2022/07/02 06:18:08;;;;;;;4.05;0.93;;;;;;;17.36;100.00;99426.22;5008387;28;20087;-76
2022/07/02 06:20:35;;;;;;;3.78;1.00;;;;;;;17.42;100.00;99426.16;4993395;28;20037;-77
2022/07/02 06:23:00;;;;;;;5.70;1.35;;;;;;;17.62;100.00;99439.50;4992033;28;20026;-77
2022/07/02 06:25:25;;;;;;;3.90;1.23;;;;;;;17.59;100.00;99396.19;5009396;28;20402;-76
2022/07/02 06:27:51;;;;;;;6.47;1.42;;;;;;;18.08;100.00;99416.06;5010952;28;20030;-76
2022/07/02 06:30:16;;;;;;;2.97;0.70;;;;;;;18.33;100.00;99421.28;5000387;28;20117;-70
2022/07/02 06:32:42;;;;;;;3.53;0.90;;;;;;;18.55;100.00;99418.78;5012974;28;20497;-74
2022/07/02 06:35:08;;;;;;;1.50;0.80;;;;;;;18.97;100.00;99417.78;5013822;28;20029;-74
2022/07/02 06:37:33;;;;;;;1.13;0.85;;;;;;;18.92;100.00;99418.50;5010185;28;20030;-72
2022/07/02 06:39:58;;;;;;;2.03;0.88;;;;;;;19.38;100.00;99429.53;4991204;28;20169;-72
2022/07/02 06:42:26;;;;;;;2.53;0.90;;;;;;;19.49;100.00;99403.94;5009040;28;20024;-71
2022/07/02 06:44:54;;;;;;;1.33;0.73;;;;;;;19.88;93.61;99417.81;5012150;28;20025;-72
2022/07/02 06:47:20;;;;;;;0.80;0.80;;;;;;;20.23;94.41;99403.84;5011978;28;20101;-72
2022/07/02 06:49:47;;;;;;;2.45;0.77;;;;;;;20.65;90.80;99417.09;4981130;28;20029;-72
2022/07/02 06:52:12;;;;;;;0.88;0.50;;;;;;;21.14;81.54;99408.91;5010832;28;20040;-73
2022/07/02 06:54:38;;;;;;;3.45;0.68;;;;;;;21.00;76.18;99416.72;5008970;28;20029;-72
2022/07/02 06:57:04;;;;;;;2.50;0.60;;;;;;;21.59;74.97;99410.50;5010412;28;20113;-70
2022/07/02 06:59:30;;;;;;;0.60;0.50;;;;;;;22.55;67.17;99397.75;5012226;28;20487;-76
2022/07/02 07:01:56;;;;;;;3.03;0.60;;;;;;;23.29;68.01;99409.66;4989435;28;20108;-74
2022/07/02 07:04:21;;;;;;;0.95;0.65;;;;;;;23.79;62.18;99402.59;4993096;28;20026;-73
2022/07/02 07:07:00;;;;;;;0.88;0.50;;;;;;;24.83;57.13;99389.13;4992568;28;20029;-73
2022/07/02 07:09:27;;;;;;;0.75;0.43;;;;;;;26.10;53.32;99402.53;5004942;28;20034;-72
2022/07/02 07:11:53;;;;;;;1.70;0.50;;;;;;;28.34;48.75;99393.09;4998522;28;20085;-71
2022/07/02 07:14:19;;;;;;;1.33;0.40;;;;;;;29.42;42.86;99408.50;4992208;28;20159;-69
2022/07/02 07:16:45;;;;;;;0.40;0.30;;;;;;;31.33;38.72;99402.34;5005072;28;20032;-70
2022/07/02 07:19:10;;;;;;;2.05;0.40;;;;;;;32.14;36.38;99398.94;5006010;28;20017;-72
2022/07/02 07:21:38;;;;;;;3.10;0.30;;;;;;;32.29;35.43;99389.19;5007376;28;20033;-71
2022/07/02 07:24:04;;;;;;;2.85;0.32;;;;;;;32.06;35.16;99392.19;5003448;28;20029;-71
2022/07/02 07:26:30;;;;;;;0.28;0.28;;;;;;;32.52;34.87;99399.03;5006673;28;20040;-72
2022/07/02 07:28:56;;;;;;;0.50;0.10;;;;;;;32.70;34.81;99399.78;5009115;28;20030;-71
2022/07/02 07:31:21;;;;;;;0.77;0.38;;;;;;;32.53;33.52;99389.44;5005866;28;20034;-72
2022/07/02 07:33:51;;;;;;;1.05;0.32;;;;;;;32.67;33.92;99385.59;5005842;28;20032;-72
2022/07/02 07:36:18;;;;;;;0.77;0.40;;;;;;;32.19;34.01;99392.34;5005715;28;20643;-69
2022/07/02 07:38:44;;;;;;;1.45;0.43;;;;;;;33.45;32.11;99373.94;5006012;28;20181;-69
2022/07/02 07:41:09;;;;;;;0.10;0.10;;;;;;;34.24;31.21;99383.34;4992758;28;20183;-69
2022/07/02 07:43:35;;;;;;;0.55;0.40;;;;;;;34.02;31.01;99392.94;4991987;28;20148;-69
2022/07/02 07:46:00;;;;;;;0.77;0.30;;;;;;;33.52;31.55;99381.81;5005203;28;20441;-72
2022/07/02 07:48:26;;;;;;;0.40;0.28;;;;;;;33.05;32.16;99390.41;5001727;28;20045;-72
2022/07/02 07:50:51;;;;;;;1.30;0.30;;;;;;;33.94;30.51;99377.00;5003626;28;20025;-72
2022/07/02 07:53:16;;;;;;;1.00;0.20;;;;;;;33.93;30.52;99371.72;5003592;28;20392;-77
2022/07/02 07:55:42;;;;;;;1.45;0.40;;;;;;;31.89;33.26;99361.44;5007265;28;20045;-76
2022/07/02 07:58:07;;;;;;;1.02;0.40;;;;;;;31.91;31.98;99364.69;5011037;28;20510;-76
2022/07/02 08:00:33;;;;;;;0.38;0.20;;;;;;;30.90;33.23;99375.97;5005641;28;20048;-75
2022/07/02 08:02:58;;;;;;;0.32;0.28;;;;;;;31.54;33.31;99346.63;5008245;28;20030;-69
2022/07/02 08:05:24;;;;;;;0.85;0.30;;;;;;;31.85;32.60;99366.03;5008361;28;20497;-70
2022/07/02 08:07:50;;;;;;;1.02;0.32;;;;;;;32.14;31.94;99361.72;5013094;28;20021;-69
2022/07/02 08:10:16;;;;;;;2.05;0.35;;;;;;;31.75;32.76;99364.38;5008642;28;20033;-72
2022/07/02 08:12:41;;;;;;;0.47;0.30;;;;;;;32.24;32.11;99347.38;5008937;28;20471;-71
2022/07/02 08:15:08;;;;;;;0.50;0.40;;;;;;;32.82;30.45;99362.63;5012357;28;20032;-69
2022/07/02 08:17:34;;;;;;;0.50;0.20;;;;;;;32.16;31.55;99360.22;4995101;28;20081;-70
2022/07/02 08:19:59;;;;;;;0.30;0.20;;;;;;;32.67;31.15;99363.19;4988820;28;20037;-70
2022/07/02 08:22:24;;;;;;;2.25;0.55;;;;;;;33.33;31.12;99357.06;5065706;22;20041;-71
2022/07/02 08:24:50;;;;;;;1.20;0.30;;;;;;;33.56;30.91;99357.53;5053492;28;20037;-69
2022/07/02 08:27:15;;;;;;;0.75;0.40;;;;;;;32.98;30.33;99337.63;5027154;28;20091;-66
2022/07/02 08:29:40;;;;;;;1.55;0.52;;;;;;;32.40;31.89;99356.84;5034429;28;20029;-67
2022/07/02 08:32:07;;;;;;;0.35;0.30;;;;;;;32.78;31.01;99356.06;5019848;28;20025;-66
2022/07/02 08:34:32;;;;;;;0.95;0.40;;;;;;;32.96;31.31;99356.78;5027559;28;20490;-68
2022/07/02 08:36:58;;;;;;;0.40;0.40;;;;;;;32.73;31.40;99314.22;5030720;28;20052;-69
2022/07/02 08:39:24;;;;;;;2.28;0.32;;;;;;;33.32;31.00;99341.38;5031707;28;20029;-69
2022/07/02 08:41:52;;;;;;;3.35;0.40;;;;;;;32.97;31.74;99339.63;5024785;28;21040;-69
2022/07/02 08:44:20;;;;;;;0.30;0.30;;;;;;;34.42;30.01;99326.91;5059995;28;20457;-69
2022/07/02 08:46:46;;;;;;;1.42;0.32;;;;;;;35.89;27.75;99340.75;5028204;28;20037;-67
2022/07/02 08:49:14;;;;;;;0.52;0.30;;;;;;;34.97;28.77;99336.75;5027615;28;20083;-70
2022/07/02 08:51:40;;;;;;;2.53;0.35;;;;;;;34.12;29.95;99335.56;5026552;28;20510;-68
2022/07/02 08:54:06;;;;;;;0.55;0.32;;;;;;;34.62;29.01;99342.88;5027177;28;20608;-67
2022/07/02 08:56:32;;;;;;;0.40;0.30;;;;;;;34.53;28.25;99342.13;5023045;28;20538;-66
2022/07/02 08:58:58;;;;;;;2.03;0.50;;;;;;;33.05;29.98;99326.72;5023032;28;20056;-67
2022/07/02 09:01:25;;;;;;;1.35;0.30;;;;;;;32.83;30.80;99319.44;5021366;28;20509;-67
2022/07/02 09:03:52;;;;;;;1.08;0.40;;;;;;;33.80;29.68;99321.16;5028309;28;20049;-66
2022/07/02 09:06:19;;;;;;;0.40;0.20;;;;;;;33.90;29.86;99317.09;5027580;28;20021;-74
2022/07/02 09:08:45;;;;;;;1.10;0.30;;;;;;;34.36;28.71;99300.25;5020463;28;20025;-66
2022/07/02 09:11:11;;;;;;;1.00;0.30;;;;;;;35.43;26.68;99302.81;5021610;28;20037;-65
2022/07/02 09:13:37;;;;;;;1.33;0.40;;;;;;;35.09;27.13;99293.78;5029699;28;20037;-66
2022/07/02 09:16:05;;;;;;;1.58;0.20;;;;;;;35.56;26.16;99304.41;5021287;28;20155;-66
2022/07/02 09:18:30;;;;;;;0.57;0.30;;;;;;;35.70;25.99;99304.81;5030830;28;20028;-66
2022/07/02 09:20:56;;;;;;;1.80;0.30;;;;;;;34.77;27.14;99298.38;5033372;28;20029;-66
2022/07/02 09:23:22;;;;;;;1.75;0.40;;;;;;;35.09;27.41;99308.66;5032362;28;20029;-66
2022/07/02 09:25:49;;;;;;;0.68;0.30;;;;;;;34.79;27.73;99307.28;5023089;28;20391;-66
2022/07/02 09:28:17;;;;;;;0.75;0.32;;;;;;;36.10;25.70;99294.66;5026069;28;20091;-66
2022/07/02 09:30:42;;;;;;;1.13;0.30;;;;;;;35.60;25.75;99290.47;5026188;28;20061;-66
2022/07/02 09:33:31;;;;;;;0.32;0.20;;;;;;;35.55;25.12;99300.78;5023975;28;20315;-66
2022/07/02 09:35:57;;;;;;;0.35;0.20;;;;;;;35.20;26.03;99283.66;5027039;28;20026;-65
2022/07/02 09:38:22;;;;;;;0.68;0.20;;;;;;;34.90;26.00;99280.34;5025037;28;21762;-65
2022/07/02 09:40:52;;;;;;;0.93;0.20;;;;;;;35.27;26.11;99285.88;5028432;28;20031;-65
2022/07/02 09:43:28;;;;;;;0.65;0.30;;;;;;;34.45;27.24;99286.88;5025413;28;20430;-65
2022/07/02 09:45:59;;;;;;;1.42;0.30;;;;;;;35.12;26.67;99291.06;5025500;28;20033;-65
2022/07/02 09:48:24;;;;;;;0.88;0.22;;;;;;;34.65;27.14;99268.28;5028819;28;20060;-65
2022/07/02 09:50:52;;;;;;;1.85;0.20;;;;;;;35.86;24.23;99271.06;5022102;28;20435;-65
2022/07/02 09:53:17;;;;;;;1.52;0.40;;;;;;;34.55;25.67;99265.94;5022771;28;20041;-66
2022/07/02 09:55:50;;;;;;;0.65;0.20;;;;;;;34.37;25.54;99290.63;5024833;28;20140;-65
2022/07/02 09:58:24;;;;;;;0.68;0.28;;;;;;;34.99;25.01;99289.44;5027375;28;20541;-65
2022/07/02 10:00:49;;;;;;;0.10;0.10;;;;;;;34.83;25.06;99289.34;5020785;28;20116;-65
2022/07/02 10:03:15;;;;;;;1.50;0.20;;;;;;;35.26;24.43;99275.78;5021190;28;20028;-65
2022/07/02 10:05:45;;;;;;;0.22;0.10;;;;;;;34.43;25.95;99283.63;5024703;28;20354;-65
2022/07/02 10:08:11;;;;;;;0.73;0.20;;;;;;;34.69;26.63;99275.69;5025922;28;20402;-65
2022/07/02 10:10:40;;;;;;;0.20;0.20;;;;;;;35.09;24.86;99291.78;5056031;28;20033;-66
2022/07/02 10:13:10;;;;;;;2.55;0.80;;;;;;;33.83;25.92;99289.59;5021636;28;20122;-66
2022/07/02 10:15:39;;;;;;;0.77;0.45;;;;;;;33.82;25.03;99287.97;5022536;28;20033;-65
2022/07/02 10:18:06;;;;;;;0.30;0.20;;;;;;;34.96;24.94;99289.34;5022154;28;20041;-65
2022/07/02 10:20:33;;;;;;;0.17;0.10;;;;;;;34.09;25.72;99280.09;5024782;28;20534;-65
2022/07/02 10:23:03;;;;;;;1.05;0.20;;;;;;;33.88;25.49;99274.53;5028233;28;20383;-65
2022/07/02 10:25:30;;;;;;;0.73;0.20;;;;;;;34.15;25.37;99275.06;5021489;28;20044;-65
2022/07/02 10:27:56;;;;;;;0.85;0.20;;;;;;;33.59;25.96;99270.72;5025471;28;20029;-65
2022/07/02 10:30:29;;;;;;;0.57;0.20;;;;;;;33.59;26.32;99283.91;5022921;28;20028;-66
2022/07/02 10:32:54;;;;;;;0.82;0.22;;;;;;;33.37;26.51;99271.84;5017821;28;20052;-65
2022/07/02 10:35:21;;;;;;;0.55;0.20;;;;;;;34.78;26.46;99266.28;5022537;28;20398;-65
2022/07/02 10:37:47;;;;;;;0.40;0.25;;;;;;;34.46;26.00;99254.81;5023894;28;20025;-65
2022/07/02 10:40:18;;;;;;;0.82;0.30;;;;;;;33.70;26.53;99253.44;5022038;28;20037;-65
2022/07/02 10:42:49;;;;;;;3.83;0.30;;;;;;;33.24;26.24;99246.91;5015528;28;20036;-66
2022/07/02 10:45:16;;;;;;;1.55;0.30;;;;;;;33.78;26.42;99244.91;5019673;28;20083;-65
2022/07/02 10:48:01;;;;;;;1.23;0.40;;;;;;;34.03;26.54;99220.50;5025355;28;20025;-65
2022/07/02 10:50:38;;;;;;;0.55;0.20;;;;;;;34.82;24.54;99233.47;5034906;28;20398;-66
2022/07/02 10:53:13;;;;;;;0.55;0.30;;;;;;;34.89;24.58;99233.69;5022514;28;20551;-65
2022/07/02 10:55:41;;;;;;;1.08;0.30;;;;;;;34.76;25.40;99243.34;5025975;28;20031;-65
2022/07/02 10:58:08;;;;;;;2.38;1.00;;;;;;;34.55;24.50;99241.44;5021492;28;20028;-65
2022/07/02 11:00:38;;;;;;;0.52;0.35;;;;;;;34.35;24.26;99242.41;5022439;28;20112;-65
2022/07/02 11:03:14;;;;;;;0.47;0.30;;;;;;;35.27;24.84;99229.63;5022311;28;20135;-66
2022/07/02 11:06:03;;;;;;;1.08;0.20;;;;;;;33.99;24.65;99244.81;5025111;28;20124;-65
2022/07/02 11:08:48;;;;;;;;;;;;;;;33.14;27.31;99234.13;5022600;28;20052;-65
2022/07/02 11:11:18;;;;;;;1.05;0.30;;;;;;;34.56;25.79;99229.06;5019331;28;19931;-65
2022/07/02 11:13:49;;;;;;;1.38;0.20;;;;;;;34.85;24.50;99227.97;5018167;28;20435;-65
2022/07/02 11:16:41;;;;;;;1.02;0.30;;;;;;;34.77;25.38;99197.16;5021985;28;20144;-65
2022/07/02 11:19:28;;;;;;;0.93;0.30;;;;;;;35.59;25.31;99226.91;5020150;28;20465;-65
2022/07/02 11:21:57;;;;;;;1.00;0.40;;;;;;;35.00;25.46;99226.38;5019276;28;20025;-64
2022/07/02 11:24:24;;;;;;;0.40;0.20;;;;;;;35.11;25.14;99216.31;5021309;28;20044;-77
2022/07/02 11:26:50;;;;;;;0.47;0.20;;;;;;;35.77;24.91;99222.56;5053528;28;20390;-73
2022/07/02 11:29:16;;;;;;;0.50;0.20;;;;;;;35.70;24.79;99216.75;5026977;28;20029;-72
2022/07/02 11:31:47;;;;;;;0.73;0.30;;;;;;;36.25;24.17;99214.94;5026995;28;20029;-73
2022/07/02 11:34:26;;;;;;;0.28;0.10;;;;;;;35.58;24.36;99208.38;5024955;28;20021;-72
2022/07/02 11:36:52;;;;;;;1.27;0.20;;;;;;;35.00;26.03;99208.69;5028922;28;20025;-73
2022/07/02 11:39:23;;;;;;;0.68;0.20;;;;;;;35.04;24.62;99196.38;5026566;28;20029;-70